createdAt,value
2022-11-20T00:01:25.603Z,15.00
2022-11-20T00:03:53.988Z,14.57
2022-11-20T00:06:21.672Z,14.50
2022-11-20T00:08:49.139Z,14.95
2022-11-20T00:11:19.097Z,13.93
2022-11-20T00:13:46.745Z,15.18
2022-11-20T00:16:15.667Z,14.50
2022-11-20T00:18:43.387Z,15.13
2022-11-20T00:21:22.287Z,13.85
2022-11-20T00:23:50.350Z,14.98
2022-11-20T00:26:19.315Z,15.68
2022-11-20T00:29:10.575Z,16.30
2022-11-20T00:31:37.427Z,18.10
2022-11-20T00:34:04.026Z,19.90
2022-11-20T00:36:34.359Z,18.15
2022-11-20T00:39:01.230Z,17.63
2022-11-20T00:41:29.755Z,18.27
2022-11-20T00:43:56.932Z,17.80
2022-11-20T00:46:26.003Z,18.58
2022-11-20T00:48:52.708Z,18.20
2022-11-20T00:51:22.411Z,17.25
2022-11-20T00:53:49.553Z,16.95
2022-11-20T00:56:19.103Z,18.40
2022-11-20T00:58:48.521Z,17.20
2022-11-20T01:01:18.174Z,16.73
2022-11-20T01:03:47.635Z,20.27
2022-11-20T01:06:20.024Z,18.60
2022-11-20T01:08:47.408Z,15.93
2022-11-20T01:11:19.468Z,16.00
2022-11-20T01:13:47.420Z,16.63
2022-11-20T01:16:28.645Z,15.70
2022-11-20T01:18:58.247Z,16.23
2022-11-20T01:21:27.941Z,16.13
2022-11-20T01:23:55.055Z,16.25
2022-11-20T01:26:25.095Z,16.42
2022-11-20T01:28:52.397Z,17.88
2022-11-20T01:31:20.199Z,18.27
2022-11-20T01:33:48.476Z,18.98
2022-11-20T01:36:16.618Z,20.02
2022-11-20T01:38:44.011Z,19.92
2022-11-20T01:41:33.012Z,24.45
2022-11-20T01:44:01.115Z,17.73
2022-11-20T01:46:28.273Z,18.02
2022-11-20T01:49:05.209Z,17.75
2022-11-20T01:51:31.703Z,17.55
2022-11-20T01:54:03.255Z,17.88
2022-11-20T01:56:32.572Z,17.58
2022-11-20T01:59:02.854Z,18.15
2022-11-20T02:01:29.624Z,18.40
2022-11-20T02:03:57.269Z,18.23
2022-11-20T02:06:30.651Z,20.48
2022-11-20T02:08:57.351Z,27.35
2022-11-20T02:11:24.081Z,17.38
2022-11-20T02:13:51.426Z,17.40
2022-11-20T02:16:35.222Z,17.55
2022-11-20T02:21:29.517Z,21.00
2022-11-20T02:24:15.629Z,19.55
2022-11-20T02:26:53.645Z,18.13
2022-11-20T02:29:29.274Z,17.63
2022-11-20T02:31:57.780Z,15.85
2022-11-20T02:34:24.340Z,16.45
2022-11-20T02:36:53.263Z,16.25
2022-11-20T02:39:22.008Z,16.65
2022-11-20T02:41:48.785Z,17.52
2022-11-20T02:44:15.434Z,18.13
2022-11-20T02:46:42.012Z,19.30
2022-11-20T02:49:08.707Z,21.25
2022-11-20T02:51:35.416Z,19.67
2022-11-20T02:54:02.062Z,25.00
2022-11-20T02:56:29.041Z,24.80
2022-11-20T02:58:55.814Z,22.73
2022-11-20T03:01:22.728Z,22.10
2022-11-20T03:03:49.661Z,19.40
2022-11-20T03:06:19.353Z,16.25
2022-11-20T03:08:45.937Z,13.77
2022-11-20T03:11:12.539Z,13.60
2022-11-20T03:13:39.185Z,12.95
2022-11-20T03:16:15.539Z,12.40
2022-11-20T03:18:42.905Z,11.95
2022-11-20T03:21:11.921Z,12.15
2022-11-20T03:23:39.733Z,12.13
2022-11-20T03:26:10.602Z,12.13
2022-11-20T03:28:38.027Z,12.48
2022-11-20T03:31:10.260Z,13.50
2022-11-20T03:33:37.121Z,12.88
2022-11-20T03:36:09.163Z,14.82
2022-11-20T03:38:35.915Z,13.65
2022-11-20T03:41:04.375Z,13.32
2022-11-20T03:43:31.438Z,13.95
2022-11-20T03:45:58.341Z,14.70
2022-11-20T03:48:25.150Z,15.38
2022-11-20T03:50:52.779Z,13.77
2022-11-20T03:53:19.720Z,16.05
2022-11-20T03:55:51.115Z,15.05
2022-11-20T03:58:19.060Z,15.13
2022-11-20T04:00:45.659Z,13.88
2022-11-20T04:03:12.221Z,13.48
2022-11-20T04:05:38.812Z,14.02
2022-11-20T04:08:05.752Z,13.25
2022-11-20T04:10:32.305Z,16.35
2022-11-20T04:12:58.892Z,15.98
2022-11-20T04:15:25.481Z,16.85
2022-11-20T04:17:52.090Z,23.67
2022-11-20T04:20:18.683Z,19.55
2022-11-20T04:22:45.288Z,20.63
2022-11-20T04:25:11.817Z,16.60
2022-11-20T04:27:38.440Z,19.13
2022-11-20T04:30:05.473Z,16.65
2022-11-20T04:32:32.104Z,16.77
2022-11-20T04:34:58.721Z,18.08
2022-11-20T04:37:25.280Z,17.90
2022-11-20T04:39:51.810Z,18.98
2022-11-20T04:42:30.516Z,18.38
2022-11-20T04:44:57.972Z,17.77
2022-11-20T04:47:24.774Z,18.55
2022-11-20T04:49:51.453Z,20.40
2022-11-20T04:52:18.022Z,21.90
2022-11-20T04:54:44.601Z,22.50
2022-11-20T04:57:14.425Z,21.60
2022-11-20T04:59:41.498Z,23.00
2022-11-20T05:02:08.393Z,32.55
2022-11-20T05:04:34.956Z,30.95
2022-11-20T05:07:01.564Z,97.40
2022-11-20T05:09:28.129Z,111.47
2022-11-20T05:11:54.755Z,54.83
2022-11-20T05:14:21.288Z,37.75
2022-11-20T05:16:47.843Z,34.15
2022-11-20T05:19:14.392Z,22.75
2022-11-20T05:21:40.982Z,23.25
2022-11-20T05:24:08.001Z,23.55
2022-11-20T05:26:34.640Z,22.77
2022-11-20T05:29:01.299Z,21.55
2022-11-20T05:31:28.534Z,22.30
2022-11-20T05:33:57.075Z,23.23
2022-11-20T05:36:23.937Z,24.95
2022-11-20T05:38:51.318Z,24.50
2022-11-20T05:41:21.242Z,28.02
2022-11-20T05:43:49.156Z,33.97
2022-11-20T05:46:17.635Z,36.35
2022-11-20T05:48:44.976Z,28.42
2022-11-20T05:51:14.830Z,73.50
2022-11-20T05:53:47.885Z,40.50
2022-11-20T05:56:18.339Z,37.58
2022-11-20T05:58:46.028Z,41.67
2022-11-20T06:01:24.893Z,39.80
2022-11-20T06:03:52.331Z,32.78
2022-11-20T06:06:19.798Z,29.10
2022-11-20T06:08:46.807Z,32.78
2022-11-20T06:11:15.482Z,37.55
2022-11-20T06:13:43.001Z,35.05
2022-11-20T06:16:11.218Z,38.22
2022-11-20T06:18:38.461Z,33.05
2022-11-20T06:21:06.669Z,37.20
2022-11-20T06:23:35.034Z,31.42
2022-11-20T06:26:07.721Z,35.35
2022-11-20T06:28:34.671Z,26.30
2022-11-20T06:31:01.248Z,26.02
2022-11-20T06:33:28.921Z,31.55
2022-11-20T06:36:02.616Z,32.72
2022-11-20T06:38:32.628Z,39.65
2022-11-20T06:40:59.255Z,54.15
2022-11-20T06:43:26.784Z,53.35
2022-11-20T06:45:57.874Z,47.05
2022-11-20T06:48:26.324Z,47.58
2022-11-20T06:50:52.852Z,36.88
2022-11-20T06:53:19.807Z,34.47
2022-11-20T06:55:47.946Z,35.50
2022-11-20T06:58:15.963Z,30.23
2022-11-20T07:00:42.683Z,26.20
2022-11-20T07:03:11.575Z,23.90
2022-11-20T07:05:39.550Z,25.48
2022-11-20T07:08:06.284Z,24.00
2022-11-20T07:10:34.300Z,22.33
2022-11-20T07:13:00.915Z,15.25
2022-11-20T07:15:27.529Z,22.35
2022-11-20T07:17:54.119Z,21.83
2022-11-20T07:20:20.943Z,17.23
2022-11-20T07:22:47.570Z,19.02
2022-11-20T07:25:14.097Z,16.08
2022-11-20T07:27:40.658Z,14.25
2022-11-20T07:30:07.896Z,12.77
2022-11-20T07:32:34.443Z,15.48
2022-11-20T07:35:01.031Z,16.65
2022-11-20T07:37:27.596Z,14.98
2022-11-20T07:39:54.204Z,12.65
2022-11-20T07:42:20.768Z,12.48
2022-11-20T07:44:47.345Z,15.23
2022-11-20T07:47:13.877Z,16.55
2022-11-20T07:49:40.445Z,16.58
2022-11-20T07:52:07.015Z,18.63
2022-11-20T07:54:33.569Z,18.27
2022-11-20T07:57:00.114Z,17.42
2022-11-20T07:59:26.755Z,19.02
2022-11-20T08:01:53.319Z,19.25
2022-11-20T08:04:19.897Z,16.90
2022-11-20T08:06:46.496Z,18.27
2022-11-20T08:09:13.080Z,14.82
2022-11-20T08:11:57.924Z,14.80
2022-11-20T08:14:24.537Z,11.52
2022-11-20T08:16:51.113Z,10.00
2022-11-20T08:19:20.048Z,8.48
2022-11-20T08:21:47.278Z,8.45
2022-11-20T08:24:13.864Z,9.02
2022-11-20T08:26:41.729Z,8.15
2022-11-20T08:29:08.553Z,8.65
2022-11-20T08:31:35.685Z,7.60
2022-11-20T08:34:07.740Z,7.32
2022-11-20T08:36:36.126Z,6.50
2022-11-20T08:39:03.652Z,8.93
2022-11-20T08:41:33.975Z,6.70
2022-11-20T08:44:02.925Z,7.28
2022-11-20T08:46:42.685Z,16.20
2022-11-20T08:49:11.867Z,10.52
2022-11-20T08:51:39.372Z,12.93
2022-11-20T08:54:06.698Z,10.18
2022-11-20T08:56:33.492Z,10.77
2022-11-20T08:59:22.932Z,13.68
2022-11-20T09:01:49.377Z,12.88
2022-11-20T09:04:16.501Z,13.70
2022-11-20T09:06:43.087Z,13.65
2022-11-20T09:09:09.684Z,15.98
2022-11-20T09:11:37.118Z,14.02
2022-11-20T09:14:03.915Z,11.30
2022-11-20T09:16:30.517Z,14.43
2022-11-20T09:21:43.591Z,12.20
2022-11-20T09:24:10.352Z,11.48
2022-11-20T09:26:36.946Z,10.70
2022-11-20T09:29:03.684Z,10.85
2022-11-20T09:31:30.307Z,10.73
2022-11-20T09:33:56.890Z,9.20
2022-11-20T09:36:23.728Z,10.20
2022-11-20T09:38:50.303Z,7.75
2022-11-20T09:41:35.331Z,8.57
2022-11-20T09:44:28.619Z,7.68
2022-11-20T09:47:01.008Z,6.87
2022-11-20T09:49:55.238Z,7.50
2022-11-20T09:52:59.081Z,9.52
2022-11-20T09:55:26.752Z,6.05
2022-11-20T09:57:53.591Z,5.65
2022-11-20T10:00:22.402Z,5.32
2022-11-20T10:03:15.675Z,4.90
2022-11-20T10:05:47.351Z,5.30
2022-11-20T10:08:30.337Z,5.25
2022-11-20T10:11:02.895Z,5.80
2022-11-20T10:14:00.511Z,5.80
2022-11-20T10:16:42.313Z,5.80
2022-11-20T10:19:15.003Z,5.40
2022-11-20T10:22:18.929Z,6.27
2022-11-20T10:24:45.504Z,6.47
2022-11-20T10:27:31.061Z,5.47
2022-11-20T10:30:26.234Z,5.47
2022-11-20T10:33:06.498Z,5.40
2022-11-20T10:35:55.823Z,5.18
2022-11-20T10:38:34.725Z,5.63
2022-11-20T10:41:22.630Z,5.70
2022-11-20T10:43:55.051Z,5.25
2022-11-20T10:46:23.662Z,5.93
2022-11-20T10:48:51.141Z,5.25
2022-11-20T10:51:36.482Z,6.57
2022-11-20T10:54:13.932Z,6.07
2022-11-20T10:56:50.228Z,6.57
2022-11-20T10:59:23.417Z,5.88
2022-11-20T11:01:50.324Z,6.05
2022-11-20T11:04:36.882Z,5.90
2022-11-20T11:07:13.483Z,5.53
2022-11-20T11:09:44.736Z,5.50
2022-11-20T11:12:11.881Z,5.22
2022-11-20T11:14:49.839Z,5.40
2022-11-20T11:17:28.344Z,4.90
2022-11-20T11:20:02.374Z,5.75
2022-11-20T11:22:34.811Z,6.28
2022-11-20T11:25:02.112Z,4.95
2022-11-20T11:27:28.780Z,4.72
2022-11-20T11:30:15.734Z,5.32
2022-11-20T11:32:42.597Z,6.03
2022-11-20T11:35:24.361Z,5.95
2022-11-20T11:37:52.322Z,6.00
2022-11-20T11:40:24.724Z,5.22
2022-11-20T11:42:57.448Z,4.82
2022-11-20T11:45:24.838Z,5.50
2022-11-20T11:47:53.639Z,4.70
2022-11-20T11:50:23.921Z,5.95
2022-11-20T11:52:50.394Z,6.78
2022-11-20T11:55:25.946Z,5.60
2022-11-20T11:58:05.529Z,5.35
2022-11-20T12:00:35.456Z,5.63
2022-11-20T12:03:15.317Z,6.65
2022-11-20T12:05:46.307Z,7.05
2022-11-20T12:08:27.842Z,5.78
2022-11-20T12:11:04.663Z,6.25
2022-11-20T12:13:52.186Z,6.25
2022-11-20T12:16:21.175Z,6.05
2022-11-20T12:18:53.462Z,6.57
2022-11-20T12:21:35.315Z,6.70
2022-11-20T12:24:39.625Z,5.88
2022-11-20T12:30:04.945Z,6.65
2022-11-20T12:32:54.074Z,5.93
2022-11-20T12:35:33.227Z,5.88
2022-11-20T12:38:37.559Z,6.15
2022-11-20T12:43:56.167Z,6.18
2022-11-20T12:46:47.250Z,7.65
2022-11-20T12:49:30.413Z,7.38
2022-11-20T12:52:15.466Z,6.75
2022-11-20T12:55:14.040Z,6.47
2022-11-20T12:57:51.039Z,6.38
2022-11-20T13:00:22.987Z,6.35
2022-11-20T13:03:08.995Z,6.72
2022-11-20T13:05:35.625Z,7.40
2022-11-20T13:08:03.702Z,6.80
2022-11-20T13:10:50.756Z,7.18
2022-11-20T13:13:35.845Z,6.28
2022-11-20T13:16:17.860Z,6.63
2022-11-20T13:18:46.243Z,6.38
2022-11-20T13:21:21.337Z,6.43
2022-11-20T13:23:48.444Z,5.40
2022-11-20T13:26:21.803Z,5.68
2022-11-20T13:29:00.607Z,5.97
2022-11-20T13:31:35.931Z,5.78
2022-11-20T13:34:06.864Z,5.72
2022-11-20T13:36:35.983Z,7.40
2022-11-20T13:39:02.981Z,5.72
2022-11-20T13:41:38.787Z,5.68
2022-11-20T13:44:36.254Z,5.70
2022-11-20T13:47:03.000Z,11.57
2022-11-20T13:49:45.236Z,7.90
2022-11-20T13:52:49.297Z,6.55
2022-11-20T13:55:32.213Z,6.45
2022-11-20T13:58:23.590Z,7.22
2022-11-20T14:00:59.606Z,7.40
2022-11-20T14:03:51.330Z,8.05
2022-11-20T14:06:32.582Z,10.45
2022-11-20T14:09:00.379Z,11.70
2022-11-20T14:11:31.745Z,11.77
2022-11-20T14:14:04.088Z,11.18
2022-11-20T14:16:37.000Z,13.68
2022-11-20T14:19:21.656Z,14.80
2022-11-20T14:21:55.330Z,21.77
2022-11-20T14:24:24.355Z,36.42
2022-11-20T14:26:52.939Z,12.63
2022-11-20T14:29:29.509Z,11.23
2022-11-20T14:31:57.870Z,12.85
2022-11-20T14:34:27.523Z,11.68
2022-11-20T14:36:59.903Z,13.70
2022-11-20T14:39:54.054Z,13.40
2022-11-20T14:44:53.624Z,14.65
2022-11-20T14:47:23.432Z,17.40
2022-11-20T14:49:52.463Z,17.30
2022-11-20T14:52:24.310Z,19.00
2022-11-20T14:54:53.471Z,19.60
2022-11-20T14:57:31.605Z,24.67
2022-11-20T15:00:24.891Z,35.78
2022-11-20T15:02:52.649Z,33.17
2022-11-20T15:05:24.994Z,35.78
2022-11-20T15:08:07.395Z,30.30
2022-11-20T15:10:34.089Z,27.35
2022-11-20T15:13:07.148Z,32.88
2022-11-20T15:15:45.223Z,27.10
2022-11-20T15:18:17.180Z,20.40
2022-11-20T15:20:44.772Z,20.63
2022-11-20T15:23:14.258Z,23.23
2022-11-20T15:25:41.778Z,58.83
2022-11-20T15:28:22.294Z,45.85
2022-11-20T15:30:50.755Z,23.67
2022-11-20T15:33:18.576Z,35.35
2022-11-20T15:35:45.535Z,159.38
2022-11-20T15:38:12.163Z,65.70
2022-11-20T15:40:38.864Z,15.95
2022-11-20T15:43:12.552Z,11.23
2022-11-20T15:45:44.364Z,15.13
2022-11-20T15:48:20.689Z,14.65
2022-11-20T15:51:12.300Z,9.98
2022-11-20T15:53:40.029Z,9.32
2022-11-20T15:56:07.109Z,7.30
2022-11-20T15:58:33.644Z,12.70
2022-11-20T16:01:00.305Z,11.18
2022-11-20T16:03:26.961Z,15.10
2022-11-20T16:05:53.510Z,17.58
2022-11-20T16:08:20.108Z,27.98
2022-11-20T16:10:46.712Z,6.82
2022-11-20T16:13:34.323Z,13.90
2022-11-20T16:16:06.002Z,8.15
2022-11-20T16:18:33.545Z,7.50
2022-11-20T16:21:00.332Z,7.55
2022-11-20T16:23:27.004Z,4.50
2022-11-20T16:25:53.796Z,4.60
2022-11-20T16:28:20.733Z,6.03
2022-11-20T16:30:47.425Z,6.03
2022-11-20T16:33:16.908Z,6.25
2022-11-20T16:35:43.950Z,14.70
2022-11-20T16:38:10.566Z,11.73
2022-11-20T16:40:37.583Z,7.60
2022-11-20T16:43:14.946Z,16.38
2022-11-20T16:45:43.723Z,19.83
2022-11-20T16:48:16.478Z,24.95
2022-11-20T16:50:48.891Z,21.35
2022-11-20T16:53:15.834Z,20.45
2022-11-20T16:55:42.788Z,29.33
2022-11-20T16:58:09.626Z,19.80
2022-11-20T17:00:38.366Z,18.52
2022-11-20T17:03:06.019Z,31.45
2022-11-20T17:05:33.529Z,29.17
2022-11-20T17:08:01.115Z,25.90
2022-11-20T17:10:27.829Z,21.02
2022-11-20T17:12:54.538Z,17.88
2022-11-20T17:15:21.251Z,20.52
2022-11-20T17:17:48.190Z,14.73
2022-11-20T17:20:14.914Z,14.63
2022-11-20T17:22:41.576Z,16.13
2022-11-20T17:25:08.559Z,18.17
2022-11-20T17:27:35.396Z,14.48
2022-11-20T17:30:02.329Z,15.68
2022-11-20T17:32:29.065Z,16.95
2022-11-20T17:34:56.734Z,18.73
2022-11-20T17:37:23.393Z,21.58
2022-11-20T17:39:50.392Z,24.33
2022-11-20T17:42:37.144Z,22.05
2022-11-20T17:45:04.842Z,20.70
2022-11-20T17:47:31.568Z,18.67
2022-11-20T17:49:58.607Z,19.63
2022-11-20T17:52:25.275Z,26.25
2022-11-20T17:54:56.316Z,23.63
2022-11-20T17:57:43.072Z,21.30
2022-11-20T18:00:13.247Z,23.92
2022-11-20T18:02:40.282Z,19.77
2022-11-20T18:05:07.690Z,18.85
2022-11-20T18:07:40.147Z,18.08
2022-11-20T18:10:09.368Z,19.58
2022-11-20T18:12:36.255Z,16.42
2022-11-20T18:15:03.251Z,17.52
2022-11-20T18:17:29.926Z,18.05
2022-11-20T18:20:21.620Z,17.48
2022-11-20T18:22:43.343Z,15.73
2022-11-20T18:25:10.598Z,7.57
2022-11-20T18:27:39.122Z,7.07
2022-11-20T18:30:06.386Z,5.20
2022-11-20T18:32:35.358Z,5.32
2022-11-20T18:35:02.189Z,5.40
2022-11-20T18:37:28.868Z,6.55
2022-11-20T18:39:56.532Z,6.07
2022-11-20T18:42:41.592Z,6.13
2022-11-20T18:45:08.511Z,7.35
2022-11-20T18:47:37.953Z,6.65
2022-11-20T18:50:06.361Z,6.47
2022-11-20T18:52:38.161Z,6.05
2022-11-20T18:55:06.069Z,6.70
2022-11-20T18:57:33.116Z,7.90
2022-11-20T19:00:06.516Z,7.70
2022-11-20T19:02:40.900Z,8.30
2022-11-20T19:05:09.824Z,10.07
2022-11-20T19:07:36.597Z,8.45
2022-11-20T19:10:04.548Z,9.75
2022-11-20T19:12:31.727Z,8.70
2022-11-20T19:14:58.620Z,10.13
2022-11-20T19:17:25.393Z,13.73
2022-11-20T19:19:54.834Z,9.10
2022-11-20T19:22:22.004Z,8.68
2022-11-20T19:24:48.601Z,7.57
2022-11-20T19:27:15.286Z,7.53
2022-11-20T19:29:42.211Z,8.00
2022-11-20T19:32:08.972Z,6.43
2022-11-20T19:34:35.548Z,6.88
2022-11-20T19:37:02.357Z,6.93
2022-11-20T19:39:29.099Z,7.03
2022-11-20T19:41:55.910Z,8.15
2022-11-20T19:44:22.595Z,12.45
2022-11-20T19:46:50.904Z,7.75
2022-11-20T19:49:17.543Z,8.18
2022-11-20T19:51:47.584Z,9.52
2022-11-20T19:54:14.368Z,18.45
2022-11-20T19:56:41.068Z,21.38
2022-11-20T19:59:07.690Z,25.63
2022-11-20T20:01:35.590Z,29.00
2022-11-20T20:04:05.086Z,27.13
2022-11-20T20:06:34.200Z,26.27
2022-11-20T20:09:06.912Z,21.27
2022-11-20T20:11:35.338Z,18.50
2022-11-20T20:14:03.804Z,18.45
2022-11-20T20:16:30.528Z,16.50
2022-11-20T20:18:59.296Z,15.23
2022-11-20T20:21:25.930Z,15.48
2022-11-20T20:23:55.578Z,13.95
2022-11-20T20:26:24.165Z,13.00
2022-11-20T20:28:50.914Z,8.98
2022-11-20T20:31:20.427Z,9.50
2022-11-20T20:33:47.328Z,11.23
2022-11-20T20:36:15.870Z,12.00
2022-11-20T20:38:43.415Z,10.88
2022-11-20T20:41:10.336Z,21.67
2022-11-20T20:43:56.128Z,21.70
2022-11-20T20:46:23.145Z,10.13
2022-11-20T20:48:54.129Z,9.55
2022-11-20T20:51:21.557Z,9.27
2022-11-20T20:53:48.112Z,10.50
2022-11-20T20:56:14.926Z,8.70
2022-11-20T20:58:41.704Z,8.50
2022-11-20T21:01:11.293Z,8.75
2022-11-20T21:03:37.981Z,7.95
2022-11-20T21:06:06.582Z,10.43
2022-11-20T21:08:33.467Z,8.85
2022-11-20T21:11:11.978Z,8.95
2022-11-20T21:13:40.409Z,7.95
2022-11-20T21:16:07.533Z,7.82
2022-11-20T21:18:34.248Z,7.72
2022-11-20T21:21:22.975Z,7.07
2022-11-20T21:23:49.585Z,6.38
2022-11-20T21:26:17.200Z,8.57
2022-11-20T21:28:43.877Z,8.15
2022-11-20T21:31:16.389Z,7.95
2022-11-20T21:33:45.671Z,9.93
2022-11-20T21:36:14.996Z,7.75
2022-11-20T21:38:41.631Z,6.20
2022-11-20T21:41:10.133Z,7.10
2022-11-20T21:43:36.956Z,6.30
2022-11-20T21:46:12.988Z,6.65
2022-11-20T21:48:41.240Z,6.80
2022-11-20T21:51:10.489Z,6.75
2022-11-20T21:53:37.310Z,6.43
2022-11-20T21:56:05.301Z,7.82
2022-11-20T21:58:31.974Z,11.88
2022-11-20T22:00:58.586Z,10.05
2022-11-20T22:03:25.244Z,6.82
2022-11-20T22:05:58.779Z,6.63
2022-11-20T22:11:00.231Z,5.80
2022-11-20T22:13:46.495Z,6.57
2022-11-20T22:16:14.069Z,4.90
2022-11-20T22:18:48.560Z,4.80
2022-11-20T22:21:16.286Z,6.45
2022-11-20T22:23:43.048Z,5.55
2022-11-20T22:26:12.074Z,6.00
2022-11-20T22:28:39.633Z,7.20
2022-11-20T22:31:08.597Z,6.50
2022-11-20T22:33:36.869Z,7.05
2022-11-20T22:36:13.938Z,7.05
2022-11-20T22:38:41.306Z,7.43
2022-11-20T22:41:10.869Z,6.88
2022-11-20T22:43:38.659Z,7.65
2022-11-20T22:46:14.027Z,6.40
2022-11-20T22:48:44.081Z,6.55
2022-11-20T22:51:14.156Z,6.10
2022-11-20T22:53:42.134Z,7.43
2022-11-20T22:56:10.365Z,7.03
2022-11-20T22:58:38.126Z,7.00
2022-11-20T23:01:12.224Z,6.60
2022-11-20T23:03:40.469Z,6.95
2022-11-20T23:06:07.909Z,8.32
2022-11-20T23:08:34.617Z,7.68
2022-11-20T23:11:06.598Z,7.47
2022-11-20T23:13:33.672Z,7.70
2022-11-20T23:16:06.274Z,8.02
2022-11-20T23:18:33.859Z,7.63
2022-11-20T23:21:12.141Z,7.13
2022-11-20T23:23:39.230Z,6.15
2022-11-20T23:26:08.797Z,7.32
2022-11-20T23:28:35.872Z,13.38
2022-11-20T23:31:03.075Z,12.45
2022-11-20T23:33:29.788Z,9.93
2022-11-20T23:35:56.753Z,12.35
2022-11-20T23:38:23.464Z,11.85
2022-11-20T23:40:51.269Z,11.52
2022-11-20T23:43:19.544Z,11.10
2022-11-20T23:45:48.837Z,14.00
2022-11-20T23:48:16.185Z,10.52
2022-11-20T23:50:43.996Z,9.77
2022-11-20T23:53:11.869Z,10.68
2022-11-20T23:55:38.574Z,10.77
2022-11-20T23:58:05.451Z,10.98
